Time;durP1;ratioP1;P1;durP2;ratioP2;P2;SDS_P1;SDS_P2;PMS_P1;PMS_P2;Temp;Humidity;BMP_temperature;BMP_pressure;BME280_temperature;BME280_humidity;BME280_pressure;Samples;Min_cycle;Max_cycle;Signal;HPM_P1;HPM_P2
2021/12/20 00:01:24;;;;;;;8.13;6.33;;;;;;;1.46;90.49;102637.94;5054321;28;20436;-43
2021/12/20 00:03:53;;;;;;;14.20;6.00;;;;;;;1.44;90.50;102632.75;5061572;28;20457;-43
2021/12/20 00:06:21;;;;;;;13.60;6.47;;;;;;;1.43;90.59;102644.25;5059614;28;20435;-42
2021/12/20 00:08:49;;;;;;;7.93;7.17;;;;;;;1.42;90.79;102645.16;5065750;28;20470;-44
2021/12/20 00:11:16;;;;;;;7.40;5.87;;;;;;;1.42;90.84;102650.41;5060885;28;20990;-43
2021/12/20 00:13:44;;;;;;;8.23;6.37;;;;;;;1.39;90.85;102647.97;5060848;28;20527;-44
2021/12/20 00:16:12;;;;;;;6.97;5.83;;;;;;;1.35;90.62;102656.97;5062167;28;20446;-45
2021/12/20 00:18:42;;;;;;;11.97;6.77;;;;;;;1.33;90.84;102647.47;5067486;28;20480;-47
2021/12/20 00:21:11;;;;;;;8.53;6.13;;;;;;;1.27;90.34;102642.59;5059553;28;20816;-43
2021/12/20 00:23:39;;;;;;;13.87;5.70;;;;;;;1.26;90.81;102639.09;5054250;28;20439;-43
2021/12/20 00:26:08;;;;;;;7.83;5.33;;;;;;;1.23;91.27;102639.28;5046050;28;20426;-44
2021/12/20 00:28:36;;;;;;;10.67;5.87;;;;;;;1.23;90.54;102638.44;5069432;28;20546;-43
2021/12/20 00:31:04;;;;;;;5.80;5.40;;;;;;;1.20;90.64;102639.47;5063082;28;20455;-43
2021/12/20 00:33:33;;;;;;;7.67;6.13;;;;;;;1.21;90.42;102653.47;5061326;28;20434;-46
2021/12/20 00:36:02;;;;;;;6.23;5.73;;;;;;;1.18;90.22;102651.88;5060901;28;20435;-46
2021/12/20 00:41:16;;;;;;;7.47;5.97;;;;;;;1.11;90.11;102646.13;5054366;28;20465;-43
2021/12/20 00:43:44;;;;;;;10.53;6.60;;;;;;;1.07;90.24;102644.63;5060250;28;20828;-43
2021/12/20 00:46:12;;;;;;;8.07;5.97;;;;;;;1.05;90.64;102643.84;5059785;28;20439;-44
2021/12/20 00:48:40;;;;;;;13.97;6.73;;;;;;;1.03;90.85;102650.97;5060555;28;20517;-42
2021/12/20 00:51:07;;;;;;;10.57;5.93;;;;;;;1.02;90.73;102654.53;5069090;28;20451;-43
2021/12/20 00:53:37;;;;;;;7.20;5.90;;;;;;;1.01;90.48;102654.63;5064747;28;20427;-45
2021/12/20 00:56:05;;;;;;;12.67;6.07;;;;;;;0.98;90.89;102658.28;5059646;28;20432;-43
2021/12/20 00:58:32;;;;;;;9.33;6.13;;;;;;;0.97;90.63;102648.72;5063751;28;20472;-43
2021/12/20 01:01:01;;;;;;;9.10;6.07;;;;;;;0.94;90.46;102658.53;5057052;28;20447;-43
2021/12/20 01:03:30;;;;;;;6.80;6.20;;;;;;;0.93;90.73;102655.06;5063639;28;20437;-46
2021/12/20 01:05:58;;;;;;;6.77;6.07;;;;;;;0.95;90.69;102657.63;5069043;28;20436;-44
2021/12/20 01:08:28;;;;;;;7.30;6.70;;;;;;;0.94;90.79;102648.88;5070353;28;20795;-43
2021/12/20 01:10:57;;;;;;;6.63;6.03;;;;;;;0.95;90.56;102650.59;5071129;28;20447;-44
2021/12/20 01:13:28;;;;;;;6.60;6.13;;;;;;;0.98;90.73;102650.41;5071063;28;20430;-43
2021/12/20 01:15:59;;;;;;;9.40;6.27;;;;;;;1.01;90.18;102639.72;5073068;28;20816;-43
2021/12/20 01:18:27;;;;;;;12.00;6.07;;;;;;;1.05;90.18;102643.84;5070004;28;20822;-45
2021/12/20 01:20:55;;;;;;;6.57;5.97;;;;;;;1.09;89.38;102655.88;5071952;28;20450;-43
2021/12/20 01:23:22;;;;;;;8.00;4.80;;;;;;;1.08;88.88;102648.06;5064858;28;20522;-43
2021/12/20 01:25:50;;;;;;;8.43;5.23;;;;;;;1.07;87.82;102656.91;5072415;28;20435;-43
2021/12/20 01:28:19;;;;;;;6.07;5.43;;;;;;;1.06;88.37;102652.56;5055705;28;20434;-44
2021/12/20 01:30:47;;;;;;;10.33;5.77;;;;;;;1.03;88.11;102661.47;5060662;28;21005;-44
2021/12/20 01:33:15;;;;;;;9.53;5.77;;;;;;;0.99;87.96;102662.59;5049718;28;20440;-43
2021/12/20 01:35:43;;;;;;;4.93;4.30;;;;;;;0.95;87.97;102652.34;5062685;28;20467;-45
2021/12/20 01:38:10;;;;;;;11.77;5.90;;;;;;;0.92;87.82;102657.78;5060031;28;20519;-43
2021/12/20 01:40:38;;;;;;;5.50;5.10;;;;;;;0.89;88.93;102648.31;5053436;28;20457;-42
2021/12/20 01:43:09;;;;;;;6.27;5.73;;;;;;;0.86;89.78;102652.88;5065700;28;20433;-43
2021/12/20 01:45:38;;;;;;;8.73;5.43;;;;;;;0.87;89.65;102654.56;5066889;28;20546;-44
2021/12/20 01:48:09;;;;;;;11.93;5.70;;;;;;;0.88;89.69;102662.38;5071124;28;20762;-41
2021/12/20 01:50:49;;;;;;;6.10;5.50;;;;;;;0.88;89.98;102665.00;5065962;28;20985;-42
2021/12/20 01:53:21;;;;;;;6.90;5.33;;;;;;;0.89;89.50;102660.59;5066800;28;20450;-41
2021/12/20 01:55:51;;;;;;;10.23;5.87;;;;;;;0.89;88.90;102656.19;5053000;28;20450;-42
2021/12/20 01:58:19;;;;;;;11.93;6.27;;;;;;;0.89;88.92;102652.72;5066642;28;20470;-43
2021/12/20 02:03:34;;;;;;;8.77;5.80;;;;;;;0.98;88.86;102667.94;5067373;28;20422;-42
2021/12/20 02:06:06;;;;;;;7.03;4.93;;;;;;;0.97;88.36;102658.38;5069197;28;20464;-42
2021/12/20 02:08:34;;;;;;;6.27;5.73;;;;;;;0.96;88.76;102659.28;5063863;28;20513;-41
2021/12/20 02:11:05;;;;;;;6.17;5.67;;;;;;;0.94;89.04;102661.16;5067600;28;20468;-41
2021/12/20 02:13:34;;;;;;;6.60;5.83;;;;;;;0.90;89.37;102659.63;5061247;28;20972;-42
2021/12/20 02:16:03;;;;;;;7.27;5.17;;;;;;;0.88;89.37;102661.50;5060026;28;20925;-42
2021/12/20 02:18:32;;;;;;;6.67;6.07;;;;;;;0.89;89.19;102663.22;5058414;28;20475;-43
2021/12/20 02:21:02;;;;;;;8.67;5.30;;;;;;;0.89;89.57;102664.06;5056706;28;20458;-41
2021/12/20 02:23:29;;;;;;;7.43;5.70;;;;;;;0.91;90.30;102663.97;5052783;28;20985;-41
2021/12/20 02:25:59;;;;;;;12.50;6.13;;;;;;;0.92;89.29;102663.91;5060693;28;20809;-45
2021/12/20 02:28:30;;;;;;;9.10;5.70;;;;;;;0.95;89.45;102660.25;5057508;28;20431;-43
2021/12/20 02:39:11;;;;;;;5.30;5.00;;;;;;;0.98;88.50;102655.66;5053229;28;20990;-44
2021/12/20 02:41:39;;;;;;;6.63;6.13;;;;;;;1.00;89.17;102653.78;5054851;28;20450;-45
2021/12/20 02:44:15;;;;;;;8.07;6.10;;;;;;;0.97;88.34;102646.06;5057016;28;21052;-44
2021/12/20 02:46:50;;;;;;;6.70;6.10;;;;;;;0.96;87.71;102660.13;5062325;28;20430;-41
2021/12/20 02:49:20;;;;;;;6.87;6.10;;;;;;;0.98;87.33;102653.03;5061952;28;20512;-43
2021/12/20 02:51:52;;;;;;;7.10;5.33;;;;;;;1.00;87.39;102660.81;5062027;28;20454;-44
2021/12/20 02:54:22;;;;;;;5.47;5.07;;;;;;;0.99;86.28;102665.22;5060603;28;20451;-43
2021/12/20 02:56:50;;;;;;;7.00;5.33;;;;;;;1.01;87.04;102657.25;5054172;28;20773;-42
2021/12/20 02:59:19;;;;;;;4.90;4.60;;;;;;;0.99;86.83;102653.84;5068221;28;20980;-45
2021/12/20 03:01:49;;;;;;;5.27;4.77;;;;;;;1.00;87.23;102653.78;5065895;28;20437;-43
2021/12/20 03:04:17;;;;;;;9.00;5.43;;;;;;;0.99;86.75;102654.69;5058997;28;20472;-43
2021/12/20 03:06:48;;;;;;;6.67;6.07;;;;;;;1.01;86.85;102652.84;5066224;28;20431;-45
2021/12/20 03:09:21;;;;;;;7.10;5.40;;;;;;;1.01;86.50;102652.00;5061230;28;20435;-42
2021/12/20 03:11:54;;;;;;;5.83;5.50;;;;;;;1.00;86.92;102658.19;5050268;28;20445;-41
2021/12/20 03:14:27;;;;;;;6.70;5.30;;;;;;;1.01;85.86;102658.13;5066282;28;20459;-42
2021/12/20 03:16:55;;;;;;;8.67;6.10;;;;;;;0.98;86.30;102655.66;5058662;28;20423;-43
2021/12/20 03:19:23;;;;;;;5.50;5.00;;;;;;;0.99;85.36;102659.09;5067174;28;20556;-41
2021/12/20 03:21:52;;;;;;;6.97;5.50;;;;;;;0.98;84.84;102653.03;5065566;28;20518;-44
2021/12/20 03:24:21;;;;;;;5.37;5.00;;;;;;;0.99;84.60;102656.47;5071094;28;20545;-44
2021/12/20 03:26:49;;;;;;;6.63;4.93;;;;;;;1.00;84.51;102660.81;5062844;28;20442;-42
2021/12/20 03:29:17;;;;;;;9.47;6.33;;;;;;;0.99;84.60;102656.47;5064658;28;20468;-43
2021/12/20 03:31:45;;;;;;;5.30;4.90;;;;;;;0.98;85.31;102658.28;5052856;28;20423;-42
2021/12/20 03:34:15;;;;;;;10.80;5.77;;;;;;;0.99;85.39;102665.22;5052158;28;20459;-44
2021/12/20 03:36:43;;;;;;;8.93;5.10;;;;;;;0.98;85.28;102670.56;5052031;28;20431;-43
2021/12/20 03:39:11;;;;;;;5.67;5.17;;;;;;;0.99;85.47;102670.47;5051402;28;20490;-44
2021/12/20 03:41:40;;;;;;;5.97;5.53;;;;;;;0.95;85.37;102668.97;5055140;28;20431;-43
2021/12/20 03:44:08;;;;;;;10.53;5.20;;;;;;;0.95;85.93;102668.13;5051067;28;20812;-41
2021/12/20 03:46:37;;;;;;;6.10;5.60;;;;;;;0.93;85.55;102676.06;5053858;28;20431;-42
2021/12/20 03:49:06;;;;;;;8.77;5.73;;;;;;;0.89;85.26;102669.31;5052029;28;20428;-41
2021/12/20 03:51:34;;;;;;;5.33;5.00;;;;;;;0.87;85.91;102665.91;5054975;28;20435;-41
2021/12/20 03:54:02;;;;;;;5.67;5.20;;;;;;;0.85;86.00;102674.81;5052105;28;20463;-43
2021/12/20 03:56:30;;;;;;;5.47;4.97;;;;;;;0.84;86.21;102673.13;5047702;28;20961;-44
2021/12/20 03:58:59;;;;;;;5.20;4.73;;;;;;;0.83;86.33;102667.03;5050945;28;20478;-44
2021/12/20 04:01:27;;;;;;;5.83;5.27;;;;;;;0.81;86.37;102673.28;5053856;28;20469;-40
2021/12/20 04:03:57;;;;;;;5.53;5.10;;;;;;;0.81;86.22;102676.75;5066507;28;20458;-41
2021/12/20 04:06:25;;;;;;;6.70;6.20;;;;;;;0.78;85.30;102673.47;5071706;28;20430;-41
2021/12/20 04:08:53;;;;;;;5.60;5.30;;;;;;;0.78;85.67;102678.72;5073331;28;20445;-42
2021/12/20 04:11:21;;;;;;;5.10;4.87;;;;;;;0.77;85.99;102675.25;5070434;28;20461;-43
2021/12/20 04:13:49;;;;;;;6.90;5.20;;;;;;;0.76;85.73;102676.19;5071676;28;20457;-42
2021/12/20 04:16:18;;;;;;;7.87;5.10;;;;;;;0.76;85.73;102677.97;5066181;28;20433;-41
2021/12/20 04:18:46;;;;;;;5.50;5.13;;;;;;;0.76;85.67;102683.22;5073096;28;20525;-42
2021/12/20 04:21:14;;;;;;;4.90;4.50;;;;;;;0.73;85.99;102684.25;5064722;28;20451;-42
2021/12/20 04:23:41;;;;;;;7.00;6.43;;;;;;;0.70;85.39;102678.31;5040812;28;20453;-41
2021/12/20 04:26:09;;;;;;;5.80;5.50;;;;;;;0.71;86.70;102680.00;5053762;28;20431;-46
2021/12/20 04:28:37;;;;;;;8.40;5.53;;;;;;;0.70;86.64;102671.28;5061921;28;20532;-41
2021/12/20 04:31:04;;;;;;;5.37;5.03;;;;;;;0.68;87.23;102677.56;5053857;28;20466;-47
2021/12/20 04:33:33;;;;;;;4.77;4.27;;;;;;;0.68;86.35;102682.81;5057009;28;20436;-42
2021/12/20 04:36:01;;;;;;;5.67;5.13;;;;;;;0.65;86.58;102675.94;5057211;28;20432;-42
2021/12/20 04:38:31;;;;;;;5.10;4.70;;;;;;;0.64;86.43;102678.66;5063463;28;20442;-43
2021/12/20 04:40:58;;;;;;;7.97;7.17;;;;;;;0.63;86.79;102679.59;5051877;28;20493;-44
2021/12/20 04:43:26;;;;;;;7.57;5.13;;;;;;;0.64;86.42;102678.66;5051511;28;20428;-43
2021/12/20 04:45:53;;;;;;;6.20;4.70;;;;;;;0.64;87.08;102674.25;5053199;28;20436;-45
2021/12/20 04:48:21;;;;;;;7.77;4.83;;;;;;;0.64;86.90;102674.25;5048418;28;20435;-43
2021/12/20 04:50:50;;;;;;;6.33;5.10;;;;;;;0.65;86.76;102678.56;5052265;28;20978;-43
2021/12/20 04:53:18;;;;;;;6.03;5.07;;;;;;;0.67;86.93;102678.47;5051980;28;20433;-42
2021/12/20 04:55:45;;;;;;;5.93;5.40;;;;;;;0.67;86.79;102679.31;5051362;28;20455;-42
2021/12/20 04:58:14;;;;;;;6.47;4.93;;;;;;;0.69;86.29;102687.13;5046796;28;20438;-47
2021/12/20 05:00:43;;;;;;;7.03;6.03;;;;;;;0.68;86.05;102685.44;5050417;28;20478;-44
2021/12/20 05:03:12;;;;;;;8.43;5.20;;;;;;;0.68;86.26;102681.03;5053560;28;20427;-42
2021/12/20 05:05:41;;;;;;;5.43;5.03;;;;;;;0.69;86.60;102681.88;5047798;28;20455;-42
2021/12/20 05:08:12;;;;;;;7.20;5.00;;;;;;;0.70;86.62;102678.31;5050833;28;20441;-42
2021/12/20 05:10:41;;;;;;;7.00;5.57;;;;;;;0.70;86.56;102676.53;5052656;28;20447;-42
2021/12/20 05:13:11;;;;;;;6.17;5.10;;;;;;;0.73;86.85;102675.50;5058696;28;20490;-42
2021/12/20 05:15:43;;;;;;;5.50;5.10;;;;;;;0.74;85.83;102687.72;5061617;28;20558;-42
2021/12/20 05:18:10;;;;;;;5.03;4.63;;;;;;;0.74;85.21;102685.09;5063781;28;20427;-43
2021/12/20 05:20:39;;;;;;;8.83;5.90;;;;;;;0.75;85.23;102679.75;5065113;28;20478;-43
2021/12/20 05:23:07;;;;;;;5.73;5.23;;;;;;;0.74;86.13;102685.94;5067521;28;20452;-43
2021/12/20 05:25:37;;;;;;;7.27;5.97;;;;;;;0.76;85.35;102680.59;5071572;28;20884;-41
2021/12/20 05:28:05;;;;;;;7.27;5.10;;;;;;;0.74;84.91;102685.94;5059249;28;20872;-42
2021/12/20 05:30:34;;;;;;;9.67;5.33;;;;;;;0.77;85.69;102684.91;5063065;28;20867;-43
2021/12/20 05:33:02;;;;;;;6.03;5.53;;;;;;;0.76;85.23;102689.31;5061421;28;20427;-42
2021/12/20 05:35:31;;;;;;;7.33;5.57;;;;;;;0.76;84.66;102686.69;5060758;28;20458;-44
2021/12/20 05:37:59;;;;;;;7.53;6.80;;;;;;;0.76;84.57;102689.31;5058472;28;20941;-42
2021/12/20 05:40:27;;;;;;;6.70;6.00;;;;;;;0.76;85.01;102701.59;5053486;28;20481;-41
2021/12/20 05:42:56;;;;;;;6.40;5.70;;;;;;;0.74;84.56;102691.19;5059507;28;20439;-42
2021/12/20 05:45:24;;;;;;;7.03;5.90;;;;;;;0.74;84.86;102685.94;5054905;28;20459;-41
2021/12/20 05:47:51;;;;;;;6.23;5.90;;;;;;;0.73;85.19;102689.50;5071212;28;20435;-42
2021/12/20 05:50:21;;;;;;;8.03;5.93;;;;;;;0.70;85.40;102684.41;5069487;28;20454;-41
2021/12/20 05:52:49;;;;;;;9.27;8.27;;;;;;;0.71;85.15;102690.50;5046511;28;20430;-43
2021/12/20 05:55:18;;;;;;;6.00;5.40;;;;;;;0.69;84.37;102697.63;5068125;28;20459;-42
2021/12/20 05:57:45;;;;;;;6.80;6.37;;;;;;;0.70;84.30;102704.56;5053527;28;20801;-41
2021/12/20 06:00:18;;;;;;;8.37;6.80;;;;;;;0.69;84.83;102702.91;5062876;28;20487;-42
2021/12/20 06:02:49;;;;;;;6.40;6.10;;;;;;;0.66;84.94;102703.88;5057010;28;20450;-41
2021/12/20 06:05:17;;;;;;;7.10;6.70;;;;;;;0.66;85.80;102697.81;5064732;28;20819;-41
2021/12/20 06:07:45;;;;;;;7.10;6.70;;;;;;;0.64;85.05;102710.16;5069858;28;20434;-43
2021/12/20 06:10:16;;;;;;;6.17;5.63;;;;;;;0.64;85.41;102702.28;5059938;28;20811;-42
2021/12/20 06:12:45;;;;;;;6.57;6.13;;;;;;;0.64;85.59;102704.91;5056821;28;20434;-43
2021/12/20 06:15:13;;;;;;;5.60;5.27;;;;;;;0.64;85.42;102705.75;5051683;28;20456;-43
2021/12/20 06:17:42;;;;;;;6.67;6.17;;;;;;;0.65;85.18;102702.22;5056867;28;20779;-42
2021/12/20 06:20:12;;;;;;;8.93;6.17;;;;;;;0.64;85.44;102720.66;5061050;28;20479;-42
2021/12/20 06:22:40;;;;;;;6.37;5.87;;;;;;;0.64;85.77;102705.75;5060678;28;20424;-45
2021/12/20 06:25:09;;;;;;;6.47;6.10;;;;;;;0.63;85.92;102714.56;5065776;28;20462;-45
2021/12/20 06:27:37;;;;;;;6.57;5.97;;;;;;;0.62;85.53;102712.88;5055906;28;20431;-42
2021/12/20 06:30:08;;;;;;;7.70;5.57;;;;;;;0.59;85.04;102701.69;5054238;28;20471;-41
2021/12/20 06:32:36;;;;;;;7.03;6.33;;;;;;;0.58;84.85;102719.22;5041631;28;20506;-43
2021/12/20 06:35:26;;;;;;;6.30;5.90;;;;;;;0.56;85.36;102726.34;5043969;28;20478;-46
2021/12/20 06:38:00;;;;;;;7.20;6.60;;;;;;;0.55;84.63;102725.50;5040900;28;20430;-41
2021/12/20 06:40:29;;;;;;;6.33;5.90;;;;;;;0.57;84.82;102724.56;5050323;28;20466;-46
2021/12/20 06:42:57;;;;;;;8.90;6.33;;;;;;;0.57;85.40;102730.63;5054177;28;20432;-42
2021/12/20 06:45:25;;;;;;;7.37;6.63;;;;;;;0.55;85.75;102730.75;5053557;28;20469;-41
2021/12/20 06:47:52;;;;;;;6.87;6.37;;;;;;;0.55;85.11;102732.50;5054806;28;20430;-46
2021/12/20 06:50:20;;;;;;;10.07;6.67;;;;;;;0.59;85.03;102738.44;5049263;28;20483;-42
2021/12/20 06:52:49;;;;;;;7.40;6.50;;;;;;;0.60;85.36;102737.53;5062372;28;20426;-43
2021/12/20 06:55:17;;;;;;;7.40;5.90;;;;;;;0.60;85.46;102733.09;5049938;28;20496;-42
2021/12/20 06:57:45;;;;;;;8.00;7.50;;;;;;;0.59;84.56;102741.94;5052909;28;20521;-44
2021/12/20 07:00:13;;;;;;;6.70;6.20;;;;;;;0.58;85.00;102721.84;5051045;28;20463;-41
2021/12/20 07:02:41;;;;;;;6.70;6.30;;;;;;;0.57;85.54;102735.06;5054264;28;20444;-43
2021/12/20 07:05:10;;;;;;;5.80;5.43;;;;;;;0.58;86.35;102732.34;5062305;28;20607;-44
2021/12/20 07:07:38;;;;;;;5.57;5.27;;;;;;;0.57;85.38;102735.88;5058847;28;20454;-43
2021/12/20 07:10:08;;;;;;;6.13;5.70;;;;;;;0.59;86.20;102727.94;5052580;28;20534;-42
2021/12/20 07:12:37;;;;;;;6.67;6.20;;;;;;;0.59;85.65;102736.69;5044619;28;20791;-42
2021/12/20 07:15:10;;;;;;;8.17;7.47;;;;;;;0.59;85.68;102741.94;5053783;28;20491;-42
2021/12/20 07:17:38;;;;;;;6.67;5.70;;;;;;;0.58;85.59;102737.59;5050532;28;20522;-42
2021/12/20 07:20:07;;;;;;;6.40;5.43;;;;;;;0.59;85.24;102741.06;5061303;28;20507;-42
2021/12/20 07:22:35;;;;;;;6.30;5.90;;;;;;;0.59;84.84;102743.69;5067599;28;20474;-41
2021/12/20 07:25:02;;;;;;;6.40;5.73;;;;;;;0.60;84.67;102748.03;5054938;28;20546;-44
2021/12/20 07:27:32;;;;;;;7.53;6.53;;;;;;;0.60;85.54;102756.72;5058286;28;20426;-41
2021/12/20 07:30:00;;;;;;;6.83;6.23;;;;;;;0.59;85.30;102755.06;5064994;28;20546;-43
2021/12/20 07:32:27;;;;;;;10.57;7.10;;;;;;;0.60;85.27;102751.47;5056123;28;20433;-43
2021/12/20 07:34:55;;;;;;;6.33;6.00;;;;;;;0.61;86.56;102747.06;5053114;28;20456;-42
2021/12/20 07:37:25;;;;;;;6.80;6.20;;;;;;;0.55;85.74;102746.50;5053665;28;21000;-42
2021/12/20 07:39:53;;;;;;;10.73;5.93;;;;;;;0.54;85.46;102755.28;5050579;28;20462;-46
2021/12/20 07:42:21;;;;;;;6.07;5.57;;;;;;;0.54;84.98;102762.31;5054165;28;20500;-43
2021/12/20 07:44:51;;;;;;;6.80;6.33;;;;;;;0.55;85.19;102748.25;5045724;28;20461;-42
2021/12/20 07:47:38;;;;;;;6.13;5.63;;;;;;;0.56;84.89;102763.09;5054164;28;20433;-45
2021/12/20 07:50:09;;;;;;;5.67;5.30;;;;;;;0.56;84.28;102768.34;5062623;28;20978;-43
2021/12/20 07:52:36;;;;;;;5.60;5.30;;;;;;;0.57;84.83;102755.13;5060011;28;20431;-45
2021/12/20 07:55:05;;;;;;;6.97;5.50;;;;;;;0.61;85.07;102765.47;5059100;28;20463;-46
2021/12/20 07:57:32;;;;;;;6.53;6.20;;;;;;;0.61;84.97;102755.81;5067878;28;20433;-44
2021/12/20 08:00:01;;;;;;;8.33;5.80;;;;;;;0.61;84.65;102763.69;5068477;28;20979;-44
2021/12/20 08:02:29;;;;;;;6.20;5.80;;;;;;;0.63;84.70;102764.44;5069748;28;20554;-47
2021/12/20 08:04:56;;;;;;;6.53;5.93;;;;;;;0.64;83.95;102765.28;5054970;28;21060;-44
2021/12/20 08:07:24;;;;;;;5.70;5.30;;;;;;;0.65;84.74;102764.38;5074717;28;20433;-42
2021/12/20 08:09:52;;;;;;;8.17;5.77;;;;;;;0.62;84.79;102764.53;5059158;28;20461;-44
2021/12/20 08:12:19;;;;;;;8.83;5.80;;;;;;;0.60;84.30;102761.97;5073595;28;20429;-45
2021/12/20 08:14:48;;;;;;;10.00;7.40;;;;;;;0.63;85.21;102751.31;5070581;28;20471;-42
2021/12/20 08:17:17;;;;;;;6.00;5.47;;;;;;;0.64;84.92;102765.28;5045027;28;20507;-44
2021/12/20 08:19:45;;;;;;;5.50;5.20;;;;;;;0.67;85.16;102763.34;5068067;28;20996;-44
2021/12/20 08:22:13;;;;;;;6.37;5.97;;;;;;;0.73;85.19;102762.16;5053996;28;20481;-43
2021/12/20 08:24:40;;;;;;;5.83;5.53;;;;;;;0.76;83.75;102762.84;5055392;28;20459;-44
2021/12/20 08:27:08;;;;;;;5.53;5.20;;;;;;;0.81;84.67;102766.06;5057435;28;20818;-42
2021/12/20 08:29:36;;;;;;;6.23;5.83;;;;;;;0.87;83.77;102763.09;5065641;28;20458;-44
2021/12/20 08:32:04;;;;;;;6.33;5.83;;;;;;;0.89;82.60;102763.88;5073187;28;20510;-42
2021/12/20 08:34:33;;;;;;;5.57;5.10;;;;;;;0.91;83.07;102769.88;5054487;28;20459;-43
2021/12/20 08:37:01;;;;;;;6.10;5.60;;;;;;;0.97;83.25;102776.56;5056177;28;20430;-41
2021/12/20 08:39:30;;;;;;;5.20;4.97;;;;;;;0.99;82.91;102777.31;5052412;28;20463;-45
2021/12/20 08:41:58;;;;;;;5.90;5.50;;;;;;;1.00;83.10;102772.00;5055917;28;20462;-44
2021/12/20 08:44:27;;;;;;;5.80;5.37;;;;;;;1.04;82.82;102767.44;5064138;28;20461;-46
2021/12/20 08:46:54;;;;;;;5.63;5.13;;;;;;;1.04;82.59;102773.53;5053773;28;20766;-44
2021/12/20 08:49:22;;;;;;;6.43;5.97;;;;;;;1.07;81.88;102781.25;5051990;28;20451;-42
2021/12/20 08:51:52;;;;;;;5.23;4.90;;;;;;;1.09;82.03;102782.00;5072855;28;20465;-46
2021/12/20 08:54:20;;;;;;;5.50;5.10;;;;;;;1.13;81.56;102771.31;5055813;28;20473;-44
2021/12/20 08:56:48;;;;;;;6.30;5.90;;;;;;;1.19;81.55;102782.34;5058412;28;20435;-45
2021/12/20 08:59:16;;;;;;;5.43;5.00;;;;;;;1.27;81.61;102787.16;5070112;28;20441;-42
2021/12/20 09:01:43;;;;;;;6.53;5.70;;;;;;;1.34;80.92;102791.97;5052634;28;20475;-42
2021/12/20 09:04:11;;;;;;;5.57;5.30;;;;;;;1.42;81.38;102791.53;5052506;28;20460;-43
2021/12/20 09:06:39;;;;;;;6.67;5.70;;;;;;;1.50;80.44;102807.69;5052363;28;20423;-42
2021/12/20 09:09:11;;;;;;;5.50;5.20;;;;;;;1.55;79.90;102792.53;5052115;28;20790;-43
2021/12/20 09:11:39;;;;;;;5.30;4.97;;;;;;;1.60;79.72;102801.84;5052417;28;20442;-42
2021/12/20 09:14:11;;;;;;;5.80;5.50;;;;;;;1.70;79.58;102791.66;5066415;28;20466;-43
2021/12/20 09:16:39;;;;;;;8.10;5.93;;;;;;;1.75;79.41;102802.72;5055723;28;20419;-42
2021/12/20 09:19:07;;;;;;;6.40;5.90;;;;;;;1.79;78.74;102800.78;5064204;28;20538;-42
2021/12/20 09:21:35;;;;;;;6.67;6.17;;;;;;;1.85;78.21;102803.03;5052003;28;20486;-45
2021/12/20 09:24:04;;;;;;;5.63;5.37;;;;;;;1.88;77.61;102808.13;5064957;28;20467;-42
2021/12/20 09:26:34;;;;;;;6.77;6.00;;;;;;;1.95;77.91;102815.56;5061231;28;20960;-42
2021/12/20 09:29:02;;;;;;;6.37;5.90;;;;;;;2.03;77.81;102812.50;5055685;28;20458;-42
2021/12/20 09:31:30;;;;;;;6.67;6.37;;;;;;;2.09;78.15;102807.69;5071962;28;20430;-44
2021/12/20 09:33:58;;;;;;;9.37;8.47;;;;;;;2.16;78.27;102818.69;5051699;28;20496;-42
2021/12/20 09:36:29;;;;;;;7.23;6.63;;;;;;;2.21;78.49;102814.03;5065436;28;20488;-45
2021/12/20 09:38:57;;;;;;;7.47;6.97;;;;;;;2.22;78.28;102818.31;5061724;28;20466;-43
2021/12/20 09:41:59;;;;;;;6.87;6.47;;;;;;;2.21;77.48;102820.09;5056151;28;20526;-44
2021/12/20 09:44:22;;;;;;;5.97;5.50;;;;;;;2.22;76.57;102821.81;5069859;28;20466;-45
2021/12/20 09:46:50;;;;;;;7.10;6.50;;;;;;;2.32;77.33;102816.84;5059393;28;20453;-43
2021/12/20 09:49:19;;;;;;;7.07;6.57;;;;;;;2.41;77.66;102821.56;5059609;28;20430;-43
2021/12/20 09:51:47;;;;;;;14.73;6.60;;;;;;;2.47;77.94;102828.22;5062704;28;20531;-47
2021/12/20 09:54:15;;;;;;;6.60;6.00;;;;;;;2.48;77.07;102825.47;5053459;28;20459;-42
2021/12/20 09:56:43;;;;;;;6.80;5.33;;;;;;;2.53;77.10;102823.44;5051466;28;20426;-43
2021/12/20 09:59:18;;;;;;;6.47;5.87;;;;;;;2.44;75.74;102816.09;5061054;28;20443;-42
2021/12/20 10:01:48;;;;;;;9.27;6.60;;;;;;;2.49;76.13;102811.38;5038879;28;20419;-43
2021/12/20 10:04:16;;;;;;;6.70;6.10;;;;;;;2.47;76.97;102802.75;5051417;28;20460;-45
2021/12/20 10:06:45;;;;;;;7.70;5.70;;;;;;;2.50;75.86;102817.50;5071096;28;20419;-43
2021/12/20 10:09:15;;;;;;;5.77;5.37;;;;;;;2.57;76.02;102808.31;5055874;28;20435;-46
2021/12/20 10:11:44;;;;;;;6.73;6.23;;;;;;;2.64;75.94;102817.50;5067040;28;20415;-44
2021/12/20 10:14:13;;;;;;;5.37;5.07;;;;;;;2.71;75.67;102811.78;5052371;28;21093;-42
2021/12/20 10:16:43;;;;;;;6.10;5.50;;;;;;;2.78;75.93;102813.06;5053565;28;21136;-42
2021/12/20 10:19:30;;;;;;;5.97;5.47;;;;;;;2.86;75.23;102809.09;5055353;28;20436;-43
2021/12/20 10:22:01;;;;;;;5.50;5.20;;;;;;;2.88;74.86;102810.69;5044534;28;20418;-45
2021/12/20 10:24:30;;;;;;;5.70;5.30;;;;;;;2.93;74.22;102818.34;5070423;28;20824;-44
2021/12/20 10:26:58;;;;;;;6.07;4.87;;;;;;;2.97;73.76;102815.38;5070616;28;20422;-43
2021/12/20 10:29:25;;;;;;;7.10;5.50;;;;;;;3.04;74.68;102811.44;5056593;28;20462;-47
2021/12/20 10:31:54;;;;;;;5.67;5.17;;;;;;;3.04;74.07;102811.44;5059876;28;20800;-42
2021/12/20 10:34:35;;;;;;;5.70;5.20;;;;;;;3.06;74.51;102798.13;5067340;28;20463;-44
2021/12/20 10:37:05;;;;;;;6.43;5.80;;;;;;;3.08;74.17;102812.06;5050651;28;20415;-43
2021/12/20 10:39:37;;;;;;;6.90;4.80;;;;;;;3.13;74.93;102808.22;5050723;28;20825;-45
2021/12/20 10:42:19;;;;;;;5.53;5.17;;;;;;;3.20;75.31;102804.22;5051145;28;20498;-45
2021/12/20 10:45:09;;;;;;;16.80;6.20;;;;;;;3.26;74.11;102810.88;5050261;28;20463;-48
2021/12/20 10:47:37;;;;;;;5.40;5.00;;;;;;;3.35;74.59;102807.66;5046253;28;21003;-42
2021/12/20 10:50:25;;;;;;;5.00;4.57;;;;;;;3.33;74.16;102805.13;5069640;28;20458;-42
2021/12/20 10:52:55;;;;;;;4.97;4.57;;;;;;;3.30;73.04;102804.47;5039157;28;20790;-42
2021/12/20 10:55:40;;;;;;;8.10;5.07;;;;;;;3.39;74.51;102809.16;5064968;28;20464;-42
2021/12/20 10:58:23;;;;;;;6.27;5.40;;;;;;;3.44;73.56;102807.06;5042349;28;20411;-42
2021/12/20 11:01:05;;;;;;;6.40;6.00;;;;;;;3.52;73.97;102809.19;5056151;28;20466;-43
2021/12/20 11:03:38;;;;;;;5.53;5.00;;;;;;;3.60;73.74;102818.31;5059324;28;20990;-42
2021/12/20 11:09:07;;;;;;;6.27;5.70;;;;;;;3.74;73.61;102804.19;5059404;28;20495;-43
2021/12/20 11:11:37;;;;;;;6.80;6.20;;;;;;;3.77;72.71;102804.81;5044155;28;20529;-42
2021/12/20 11:14:06;;;;;;;6.30;5.60;;;;;;;3.84;73.36;102806.13;5056561;28;20912;-41
2021/12/20 11:16:36;;;;;;;6.10;5.60;;;;;;;3.90;73.21;102805.72;5054437;28;20430;-42
2021/12/20 11:19:23;;;;;;;6.13;5.63;;;;;;;3.94;73.02;102793.16;5067556;28;20431;-43
2021/12/20 11:22:01;;;;;;;6.87;5.03;;;;;;;3.96;72.23;102796.53;5054355;28;20435;-41
2021/12/20 11:24:31;;;;;;;5.93;5.43;;;;;;;4.02;72.62;102793.47;5041846;28;21048;-42
2021/12/20 11:27:02;;;;;;;5.70;5.40;;;;;;;4.06;71.98;102799.41;5062506;28;20510;-42
2021/12/20 11:29:30;;;;;;;5.97;5.77;;;;;;;4.12;71.27;102799.78;5059805;28;20546;-42
2021/12/20 11:31:58;;;;;;;6.33;5.83;;;;;;;4.08;70.77;102789.56;5062724;28;20957;-41
2021/12/20 11:34:26;;;;;;;6.27;5.67;;;;;;;4.10;71.45;102787.66;5068429;28;20466;-42
2021/12/20 11:36:56;;;;;;;8.37;6.00;;;;;;;4.19;72.50;102779.09;5053889;28;20438;-41
2021/12/20 11:39:24;;;;;;;8.00;5.77;;;;;;;4.19;71.66;102777.31;5058904;28;20465;-44
2021/12/20 11:41:52;;;;;;;5.50;5.20;;;;;;;4.22;71.85;102781.53;5064453;28;20431;-42
2021/12/20 11:44:22;;;;;;;8.47;4.80;;;;;;;4.23;71.75;102784.09;5069451;28;20557;-42
2021/12/20 11:47:23;;;;;;;9.80;5.13;;;;;;;4.25;71.63;102781.31;5064352;28;20411;-42
2021/12/20 11:49:59;;;;;;;6.17;5.20;;;;;;;4.24;71.07;102780.47;5050975;28;20538;-44
2021/12/20 11:52:32;;;;;;;6.40;5.93;;;;;;;4.25;71.45;102786.59;5060460;28;20859;-42
2021/12/20 11:55:14;;;;;;;6.17;5.50;;;;;;;4.31;71.89;102780.91;5053228;28;21108;-43
2021/12/20 11:57:44;;;;;;;5.77;5.37;;;;;;;4.30;71.03;102777.41;5064932;28;20419;-43
2021/12/20 12:00:29;;;;;;;7.17;5.10;;;;;;;4.30;70.51;102782.69;5053464;28;20481;-43